Time;durP1;ratioP1;P1;durP2;ratioP2;P2;SDS_P1;SDS_P2;PMS_P1;PMS_P2;Temp;Humidity;BMP_temperature;BMP_pressure;BME280_temperature;BME280_humidity;BME280_pressure;Samples;Min_cycle;Max_cycle;Signal;HPM_P1;HPM_P2
2021/04/13 00:01:44;;;;;;;15.40;4.65;;;0.80;99.90;;;;;;4193681;28;20239;-85
2021/04/13 00:03:48;;;;;;;10.55;3.90;;;1.00;99.90;;;;;;4193544;28;20052;-86
2021/04/13 00:05:49;;;;;;;11.45;4.80;;;1.20;99.90;;;;;;4193835;28;20115;-86
2021/04/13 00:07:51;;;;;;;14.30;4.40;;;1.30;99.90;;;;;;4192480;28;20103;-86
2021/04/13 00:09:52;;;;;;;13.57;4.13;;;1.50;99.90;;;;;;4183505;28;20032;-86
2021/04/13 00:12:18;;;;;;;6.38;3.92;;;1.70;99.90;;;;;;4175538;28;20400;-85
2021/04/13 00:14:26;;;;;;;9.32;3.90;;;1.70;99.90;;;;;;4175197;28;20021;-86
2021/04/13 00:16:30;;;;;;;9.15;3.33;;;1.80;99.90;;;;;;4194832;28;20199;-86
2021/04/13 00:18:34;;;;;;;5.45;3.60;;;1.80;99.90;;;;;;4194515;28;20083;-87
2021/04/13 00:20:45;;;;;;;;;;;1.80;99.90;;;;;;4195950;28;20036;-86
2021/04/13 00:22:47;;;;;;;6.57;3.17;;;1.70;99.90;;;;;;4209757;28;19924;-86
2021/04/13 00:24:49;;;;;;;6.73;3.20;;;1.60;99.90;;;;;;4178315;28;20045;-86
2021/04/13 00:26:56;;;;;;;3.17;2.85;;;1.50;99.90;;;;;;4210935;28;20669;-87
2021/04/13 00:29:01;;;;;;;5.07;3.65;;;1.40;99.90;;;;;;4193809;28;20463;-87
2021/04/13 00:31:06;;;;;;;3.70;3.25;;;1.40;99.90;;;;;;4192244;28;20653;-85
2021/04/13 00:33:07;;;;;;;9.93;4.60;;;1.30;99.90;;;;;;4177352;28;20468;-86
2021/04/13 00:37:30;;;;;;;9.60;3.85;;;1.40;99.90;;;;;;4187810;28;20028;-87
2021/04/13 00:39:31;;;;;;;8.93;3.17;;;1.30;99.90;;;;;;4192083;28;20029;-86
2021/04/13 00:41:32;;;;;;;7.47;3.97;;;1.30;99.90;;;;;;4180645;28;20399;-88
2021/04/13 00:43:35;;;;;;;14.43;3.28;;;1.20;99.90;;;;;;4197858;28;20052;-86
2021/04/13 00:45:43;;;;;;;6.10;3.88;;;1.10;99.90;;;;;;4180469;28;20455;-87
2021/04/13 00:47:46;;;;;;;7.60;3.63;;;1.10;99.90;;;;;;4181628;28;20503;-86
2021/04/13 00:49:52;;;;;;;13.63;3.92;;;1.00;99.90;;;;;;4211425;28;20040;-86
2021/04/13 00:51:58;;;;;;;10.98;3.50;;;0.90;99.90;;;;;;4184369;28;20044;-87
2021/04/13 00:54:15;;;;;;;11.18;3.25;;;0.90;99.90;;;;;;4191946;28;20032;-87
2021/04/13 00:56:17;;;;;;;6.60;3.63;;;0.90;99.90;;;;;;4180968;28;20029;-87
2021/04/13 00:59:10;;;;;;;10.25;4.25;;;0.90;99.90;;;;;;4197231;28;20164;-86
2021/04/13 01:01:28;;;;;;;5.90;3.92;;;0.80;99.90;;;;;;4167258;28;20025;-86
2021/04/13 01:03:30;;;;;;;8.02;3.38;;;0.80;99.90;;;;;;4180612;28;20064;-86
2021/04/13 01:05:46;;;;;;;5.65;3.60;;;0.70;99.90;;;;;;4195823;28;20099;-86
2021/04/13 01:07:52;;;;;;;12.90;4.32;;;0.70;99.90;;;;;;4196791;28;20400;-87
2021/04/13 01:10:08;;;;;;;8.63;4.38;;;0.70;99.90;;;;;;4180694;28;20102;-85
2021/04/13 01:12:28;;;;;;;8.18;3.78;;;0.70;99.90;;;;;;4178253;28;20477;-86
2021/04/13 01:14:32;;;;;;;5.60;3.42;;;0.70;99.90;;;;;;4196975;28;20055;-86
2021/04/13 01:16:43;;;;;;;;;;;0.80;99.90;;;;;;4196019;28;20045;-83
2021/04/13 01:18:52;;;;;;;11.70;4.18;;;0.80;99.90;;;;;;4188912;28;19958;-86
2021/04/13 01:21:24;;;;;;;7.00;3.75;;;0.70;99.90;;;;;;4209178;28;20491;-85
2021/04/13 01:23:35;;;;;;;7.43;4.18;;;0.70;99.90;;;;;;4194970;28;20040;-87
2021/04/13 01:25:39;;;;;;;9.85;3.83;;;0.50;99.90;;;;;;4181801;28;20037;-87
2021/04/13 01:27:51;;;;;;;12.20;3.78;;;0.50;99.90;;;;;;4180609;28;20134;-87
2021/04/13 01:29:54;;;;;;;11.00;4.07;;;0.50;99.90;;;;;;4183085;28;20053;-87
2021/04/13 01:31:59;;;;;;;8.98;4.20;;;0.40;99.90;;;;;;4196883;28;20504;-88
2021/04/13 01:34:12;;;;;;;12.00;3.60;;;0.30;99.90;;;;;;4195501;28;20032;-87
2021/04/13 01:36:33;;;;;;;12.98;4.47;;;0.30;99.90;;;;;;4180459;28;20041;-87
2021/04/13 01:38:42;;;;;;;10.27;3.80;;;0.30;99.90;;;;;;4196587;28;20073;-87
2021/04/13 01:42:48;;;;;;;12.70;5.45;;;0.30;99.90;;;;;;4196475;28;20411;-86
2021/04/13 01:45:04;;;;;;;10.13;4.72;;;0.30;99.90;;;;;;4196047;28;20041;-86
2021/04/13 01:47:08;;;;;;;11.15;4.07;;;0.30;99.90;;;;;;4166355;28;20045;-86
2021/04/13 01:49:09;;;;;;;15.25;4.90;;;0.20;99.90;;;;;;4195560;28;20123;-87
2021/04/13 01:51:11;;;;;;;11.88;4.63;;;0.20;99.90;;;;;;4179554;28;20085;-87
2021/04/13 01:53:20;;;;;;;9.03;4.97;;;0.10;99.90;;;;;;4178282;28;20033;-86
2021/04/13 01:55:28;;;;;;;11.23;4.57;;;0.20;99.90;;;;;;4211239;28;20293;-86
2021/04/13 01:57:46;;;;;;;13.98;4.90;;;0.10;99.90;;;;;;4193861;28;20033;-85
2021/04/13 01:59:53;;;;;;;15.13;5.60;;;0.10;99.90;;;;;;4177612;28;20420;-86
2021/04/13 02:01:59;;;;;;;10.05;5.03;;;0.10;99.90;;;;;;4195679;28;20036;-86
2021/04/13 02:04:18;;;;;;;7.75;4.60;;;0.10;99.90;;;;;;4168891;28;20490;-86
2021/04/13 02:06:43;;;;;;;9.88;4.82;;;0.20;99.90;;;;;;4174930;28;20025;-86
2021/04/13 02:08:52;;;;;;;11.55;5.55;;;0.10;99.90;;;;;;4193442;28;20059;-86
2021/04/13 02:11:02;;;;;;;10.00;4.90;;;0.10;99.90;;;;;;4182085;28;20103;-87
2021/04/13 02:13:19;;;;;;;10.35;5.03;;;0.10;99.90;;;;;;4190607;28;20032;-87
2021/04/13 02:15:41;;;;;;;17.38;5.20;;;0.10;99.90;;;;;;4193751;28;20032;-87
2021/04/13 02:18:08;;;;;;;13.82;5.80;;;0.10;99.90;;;;;;4211249;28;20114;-87
2021/04/13 02:20:13;;;;;;;14.90;5.63;;;0.10;99.90;;;;;;4188939;28;20028;-87
2021/04/13 02:22:18;;;;;;;12.27;4.93;;;0.20;99.90;;;;;;4176697;28;20033;-87
2021/04/13 02:24:23;;;;;;;10.10;4.97;;;0.10;99.90;;;;;;4211255;28;20031;-85
2021/04/13 02:26:24;;;;;;;12.15;5.53;;;0.10;99.90;;;;;;4186164;28;20105;-87
2021/04/13 02:28:28;;;;;;;11.07;4.95;;;0.00;99.90;;;;;;4178512;28;20541;-87
2021/04/13 02:30:37;;;;;;;14.30;5.55;;;-0.10;99.90;;;;;;4178498;28;20036;-87
2021/04/13 02:32:47;;;;;;;11.00;5.10;;;0.00;99.90;;;;;;4176633;28;20475;-86
2021/04/13 02:34:52;;;;;;;20.00;5.55;;;0.00;99.90;;;;;;4195476;28;20028;-86
2021/04/13 02:37:00;;;;;;;7.32;5.15;;;0.00;99.90;;;;;;4212521;28;20097;-87
2021/04/13 02:39:03;;;;;;;12.32;5.25;;;0.00;99.90;;;;;;4194846;28;20556;-86
2021/04/13 02:41:18;;;;;;;;;;;0.00;99.90;;;;;;4179096;28;20031;-87
2021/04/13 02:43:30;;;;;;;10.98;5.30;;;0.00;99.90;;;;;;4194636;28;19965;-86
2021/04/13 02:45:38;;;;;;;12.27;6.30;;;0.00;99.90;;;;;;4195291;28;20564;-86
2021/04/13 02:47:48;;;;;;;11.10;6.60;;;0.00;99.90;;;;;;4177485;28;20129;-86
2021/04/13 02:49:50;;;;;;;11.15;5.35;;;0.00;99.90;;;;;;4194323;28;20064;-85
2021/04/13 02:52:01;;;;;;;10.68;6.03;;;0.00;99.90;;;;;;4209260;28;20446;-86
2021/04/13 02:54:05;;;;;;;14.98;5.95;;;0.00;99.90;;;;;;4194802;28;20518;-85
2021/04/13 02:56:14;;;;;;;22.25;7.68;;;-0.10;99.90;;;;;;4189286;28;20036;-86
2021/04/13 02:58:18;;;;;;;11.55;6.45;;;0.00;99.90;;;;;;4194908;28;20116;-87
2021/04/13 03:00:35;;;;;;;12.30;7.07;;;0.00;99.90;;;;;;4194499;28;20040;-86
2021/04/13 03:03:14;;;;;;;13.50;6.20;;;-0.10;99.90;;;;;;4210965;28;20591;-86
2021/04/13 03:05:24;;;;;;;18.92;7.45;;;-0.20;99.90;;;;;;4194135;28;20040;-86
2021/04/13 03:07:28;;;;;;;15.40;6.80;;;-0.20;99.90;;;;;;4178063;28;20120;-86
2021/04/13 03:09:36;;;;;;;14.48;6.63;;;-0.30;99.90;;;;;;4194998;28;20020;-86
2021/04/13 03:11:44;;;;;;;15.32;6.32;;;-0.30;99.90;;;;;;4179424;28;20504;-86
2021/04/13 03:13:47;;;;;;;16.88;6.85;;;-0.40;99.90;;;;;;4177788;28;20060;-86
2021/04/13 03:15:58;;;;;;;20.30;6.97;;;-0.40;99.90;;;;;;4194880;28;20048;-86
2021/04/13 03:18:03;;;;;;;17.30;6.57;;;-0.30;99.90;;;;;;4192720;28;20060;-86
2021/04/13 03:20:09;;;;;;;10.13;5.82;;;-0.20;99.90;;;;;;4190617;28;20064;-86
2021/04/13 03:22:11;;;;;;;15.02;5.72;;;-0.30;99.90;;;;;;4194696;28;20047;-86
2021/04/13 03:24:20;;;;;;;11.00;5.68;;;-0.30;99.90;;;;;;4177485;28;20561;-87
2021/04/13 03:26:30;;;;;;;15.23;5.85;;;-0.30;99.90;;;;;;4172882;28;20420;-88
2021/04/13 03:28:38;;;;;;;12.68;5.38;;;-0.30;99.90;;;;;;4188532;28;20028;-86
2021/04/13 03:30:41;;;;;;;13.60;5.80;;;-0.30;99.90;;;;;;4195055;28;20479;-87
2021/04/13 03:33:12;;;;;;;16.70;6.63;;;-0.20;99.90;;;;;;4200821;28;20035;-86
2021/04/13 03:35:14;;;;;;;12.13;6.15;;;-0.20;99.90;;;;;;4178526;28;20123;-87
2021/04/13 03:37:17;;;;;;;13.15;7.00;;;-0.30;99.90;;;;;;4193710;28;20039;-86
2021/04/13 03:39:29;;;;;;;;;;;-0.30;99.90;;;;;;4174715;28;20333;-87
2021/04/13 03:41:32;;;;;;;12.23;6.43;;;-0.30;99.90;;;;;;4194636;28;19916;-85
2021/04/13 03:43:33;;;;;;;15.50;6.78;;;-0.30;99.90;;;;;;4185042;28;20470;-85
2021/04/13 03:45:35;;;;;;;18.35;6.85;;;-0.30;99.90;;;;;;4192792;28;20056;-87
2021/04/13 03:47:37;;;;;;;17.63;6.40;;;-0.30;99.90;;;;;;4176981;28;20029;-87
2021/04/13 03:49:40;;;;;;;10.70;5.40;;;-0.40;99.90;;;;;;4192833;28;20475;-86
2021/04/13 03:51:51;;;;;;;12.77;6.35;;;-0.50;99.90;;;;;;4176416;28;20402;-87
2021/04/13 03:53:52;;;;;;;15.23;5.25;;;-0.60;99.90;;;;;;4186538;28;20037;-87
2021/04/13 03:56:08;;;;;;;17.33;6.55;;;-0.60;99.90;;;;;;4177945;28;20044;-87
2021/04/13 03:58:22;;;;;;;12.68;6.97;;;-0.60;99.90;;;;;;4195909;28;20775;-87
2021/04/13 04:00:26;;;;;;;10.93;5.47;;;-0.60;99.90;;;;;;4197751;28;20029;-86
2021/04/13 04:02:27;;;;;;;13.07;6.97;;;-0.60;99.90;;;;;;4173673;28;20104;-86
2021/04/13 04:04:38;;;;;;;13.75;5.90;;;-0.60;99.90;;;;;;4205199;28;20036;-87
2021/04/13 04:06:52;;;;;;;15.68;5.95;;;-0.60;99.90;;;;;;4179270;28;20105;-86
2021/04/13 04:09:16;;;;;;;14.27;6.15;;;-0.60;99.90;;;;;;4177899;28;20036;-87
2021/04/13 04:11:29;;;;;;;;;;;-0.50;99.90;;;;;;4191686;28;20430;-87
2021/04/13 04:13:47;;;;;;;13.85;5.30;;;-0.40;99.90;;;;;;4198240;28;19916;-87
2021/04/13 04:16:09;;;;;;;9.20;4.53;;;-0.30;99.90;;;;;;4206839;28;20412;-79
2021/04/13 04:18:42;;;;;;;27.05;7.57;;;-0.30;99.90;;;;;;4190000;28;20029;-79
2021/04/13 04:20:44;;;;;;;13.13;5.05;;;-0.20;99.90;;;;;;4195642;28;20036;-78
2021/04/13 04:22:54;;;;;;;15.70;6.50;;;-0.20;99.90;;;;;;4196505;28;20106;-78
2021/04/13 04:25:30;;;;;;;11.05;5.72;;;-0.20;99.90;;;;;;4178256;28;20052;-79
2021/04/13 04:27:37;;;;;;;14.07;5.30;;;-0.20;99.90;;;;;;4195837;28;20040;-79
2021/04/13 04:29:46;;;;;;;15.32;5.53;;;-0.20;99.90;;;;;;4179354;28;20045;-79
2021/04/13 04:31:49;;;;;;;16.20;5.70;;;-0.20;99.90;;;;;;4179881;28;20033;-78
2021/04/13 04:33:49;;;;;;;10.90;5.32;;;-0.30;99.90;;;;;;4179784;28;20036;-79
2021/04/13 04:35:51;;;;;;;16.30;5.80;;;-0.50;99.90;;;;;;4212988;28;20514;-78
2021/04/13 04:37:52;;;;;;;16.13;6.75;;;-0.60;99.90;;;;;;4178416;28;20389;-78
2021/04/13 04:40:10;;;;;;;21.92;6.00;;;-0.60;99.90;;;;;;4213131;28;20039;-78
2021/04/13 04:42:21;;;;;;;12.95;5.97;;;-0.70;99.90;;;;;;4195577;28;20491;-78
2021/04/13 04:44:28;;;;;;;9.07;5.50;;;-0.70;99.90;;;;;;4212984;28;20052;-78
2021/04/13 04:46:42;;;;;;;22.20;6.35;;;-0.70;99.90;;;;;;4195287;28;20049;-79
2021/04/13 04:49:04;;;;;;;16.48;5.30;;;-0.80;99.90;;;;;;4210723;28;20441;-79
2021/04/13 04:51:08;;;;;;;17.83;6.10;;;-0.80;99.90;;;;;;4193956;28;20029;-79
2021/04/13 04:53:09;;;;;;;15.45;6.10;;;-0.90;99.90;;;;;;4194886;28;20373;-79
2021/04/13 04:55:11;;;;;;;19.58;6.55;;;-0.80;99.90;;;;;;4193884;28;20039;-79
2021/04/13 04:57:12;;;;;;;11.47;6.03;;;-0.90;99.90;;;;;;4177676;28;20068;-79
2021/04/13 04:59:12;;;;;;;24.92;7.78;;;-0.90;99.90;;;;;;4195573;28;20297;-79
2021/04/13 05:01:13;;;;;;;15.25;7.13;;;-0.90;99.90;;;;;;4178724;28;20166;-79
2021/04/13 05:03:17;;;;;;;17.33;6.65;;;-0.70;99.90;;;;;;4172911;28;20159;-78
2021/04/13 05:05:18;;;;;;;;;;;-0.70;99.90;;;;;;4179312;28;20037;-78
2021/04/13 05:07:19;;;;;;;19.20;6.47;;;-0.50;99.90;;;;;;4194355;28;19912;-78
2021/04/13 05:09:19;;;;;;;12.57;6.53;;;-0.40;99.90;;;;;;4195594;28;20544;-77
2021/04/13 05:11:22;;;;;;;20.05;6.15;;;-0.40;99.90;;;;;;4196238;28;20044;-77
2021/04/13 05:13:22;;;;;;;13.77;5.68;;;-0.40;99.90;;;;;;4179221;28;20481;-78
2021/04/13 05:15:23;;;;;;;20.30;5.55;;;-0.40;99.90;;;;;;4194615;28;20066;-78
2021/04/13 05:17:25;;;;;;;14.07;5.80;;;-0.30;99.90;;;;;;4179184;28;20041;-78
2021/04/13 05:19:26;;;;;;;13.57;5.90;;;-0.30;99.90;;;;;;4184172;28;20041;-77
2021/04/13 05:21:26;;;;;;;17.35;6.75;;;-0.30;99.90;;;;;;4179026;28;20041;-78
2021/04/13 05:23:27;;;;;;;9.27;5.00;;;-0.20;99.90;;;;;;4194690;28;20090;-77
2021/04/13 05:25:28;;;;;;;21.77;6.88;;;-0.20;99.90;;;;;;4178538;28;20049;-78
2021/04/13 05:27:28;;;;;;;15.10;7.15;;;-0.20;99.90;;;;;;4174344;28;20440;-78
2021/04/13 05:29:30;;;;;;;18.45;7.43;;;-0.10;99.90;;;;;;4194303;28;20500;-78
2021/04/13 05:31:30;;;;;;;16.38;6.05;;;0.00;99.90;;;;;;4195251;28;20033;-78
2021/04/13 05:33:32;;;;;;;18.25;6.78;;;0.00;99.90;;;;;;4194923;28;20071;-79
2021/04/13 05:35:33;;;;;;;22.25;6.20;;;0.10;99.90;;;;;;4192531;28;20068;-78
2021/04/13 05:37:34;;;;;;;16.67;6.85;;;0.20;99.90;;;;;;4194794;28;20036;-79
2021/04/13 05:39:35;;;;;;;15.93;6.05;;;0.20;99.90;;;;;;4194513;28;20020;-78
2021/04/13 05:41:36;;;;;;;20.13;6.32;;;0.20;99.90;;;;;;4178062;28;20021;-78
2021/04/13 05:43:38;;;;;;;21.10;6.80;;;0.40;99.90;;;;;;4177225;28;20036;-78
2021/04/13 05:45:43;;;;;;;11.07;5.85;;;0.40;99.90;;;;;;4178638;28;20551;-77
2021/04/13 05:47:44;;;;;;;23.30;6.85;;;0.40;99.90;;;;;;4181216;28;20080;-77
2021/04/13 05:49:45;;;;;;;16.20;7.80;;;0.40;99.90;;;;;;4194985;28;20040;-76
2021/04/13 05:51:46;;;;;;;14.45;6.40;;;0.50;99.90;;;;;;4210574;28;20457;-78
2021/04/13 05:53:47;;;;;;;16.80;6.63;;;0.50;99.90;;;;;;4190660;28;20032;-77
2021/04/13 05:55:51;;;;;;;19.42;7.35;;;0.50;99.90;;;;;;4180284;28;20037;-78
2021/04/13 05:57:54;;;;;;;;;;;0.70;99.90;;;;;;4195007;28;20036;-79
2021/04/13 05:59:57;;;;;;;19.77;6.05;;;0.70;99.90;;;;;;4177763;28;20408;-79
2021/04/13 06:01:58;;;;;;;17.80;6.22;;;0.90;99.90;;;;;;4205407;28;20104;-77
2021/04/13 06:03:59;;;;;;;19.50;6.43;;;0.90;99.90;;;;;;4194306;28;20597;-78
2021/04/13 06:06:00;;;;;;;17.85;6.22;;;1.10;99.90;;;;;;4194076;28;20031;-78
2021/04/13 06:08:01;;;;;;;12.48;6.15;;;1.20;99.90;;;;;;4183652;28;20062;-77
2021/04/13 06:10:04;;;;;;;14.40;5.78;;;1.20;99.90;;;;;;4192525;28;20083;-79
2021/04/13 06:12:05;;;;;;;20.05;5.75;;;1.30;99.90;;;;;;4193445;28;20523;-78
2021/04/13 06:14:08;;;;;;;14.45;5.65;;;1.40;99.90;;;;;;4193227;28;20394;-78
2021/04/13 06:16:10;;;;;;;12.40;5.05;;;1.40;99.90;;;;;;4180163;28;20494;-78
2021/04/13 06:18:11;;;;;;;11.65;5.25;;;1.50;99.90;;;;;;4182284;28;20036;-77
2021/04/13 06:20:14;;;;;;;16.05;6.45;;;1.60;99.90;;;;;;4177563;28;20036;-80
2021/04/13 06:22:15;;;;;;;8.48;5.50;;;1.70;99.90;;;;;;4193937;28;20033;-81
2021/04/13 06:24:15;;;;;;;22.83;7.13;;;1.90;99.90;;;;;;4192947;28;20031;-80
2021/04/13 06:26:16;;;;;;;8.43;4.85;;;1.90;99.90;;;;;;4176283;28;20045;-80
2021/04/13 06:28:17;;;;;;;11.95;5.25;;;2.00;99.90;;;;;;4193671;28;20044;-81
2021/04/13 06:30:20;;;;;;;11.40;4.45;;;2.10;99.90;;;;;;4175807;28;20376;-80
2021/04/13 06:32:24;;;;;;;12.80;4.93;;;2.10;99.90;;;;;;4209801;28;20070;-78
2021/04/13 06:34:25;;;;;;;14.63;5.03;;;2.20;99.90;;;;;;4168140;28;20047;-78
2021/04/13 06:36:27;;;;;;;18.83;7.50;;;2.30;99.90;;;;;;4194210;28;20680;-79
2021/04/13 06:38:28;;;;;;;11.70;4.40;;;2.40;99.90;;;;;;4190197;28;20482;-79
2021/04/13 06:40:47;;;;;;;15.52;4.80;;;2.50;99.90;;;;;;4185338;28;20025;-79
2021/04/13 06:42:50;;;;;;;10.85;5.70;;;2.70;99.90;;;;;;4170366;28;20087;-79
2021/04/13 06:45:41;;;;;;;8.13;3.67;;;2.90;99.90;;;;;;4193881;28;20142;-79
2021/04/13 06:48:15;;;;;;;13.45;4.28;;;3.10;99.90;;;;;;4199396;28;20048;-78
2021/04/13 06:50:34;;;;;;;12.70;4.22;;;3.10;99.90;;;;;;4201307;28;20025;-79
2021/04/13 06:53:03;;;;;;;10.75;4.35;;;3.20;99.90;;;;;;4186400;28;20617;-77
2021/04/13 06:55:32;;;;;;;10.20;4.20;;;3.30;99.90;;;;;;4174224;28;20558;-80
2021/04/13 06:57:50;;;;;;;13.40;4.57;;;3.40;99.90;;;;;;4182557;28;20051;-80
2021/04/13 07:00:29;;;;;;;6.53;4.35;;;3.40;99.90;;;;;;4191870;28;20076;-79
2021/04/13 07:02:58;;;;;;;14.82;4.50;;;3.50;99.90;;;;;;4175245;28;20318;-80
2021/04/13 07:05:07;;;;;;;13.32;4.32;;;3.80;99.90;;;;;;4206895;28;20132;-79
2021/04/13 07:07:24;;;;;;;11.85;4.38;;;3.90;99.90;;;;;;4170502;28;20032;-79
2021/04/13 07:09:55;;;;;;;8.98;3.85;;;4.00;99.90;;;;;;4192312;28;20033;-79
2021/04/13 07:12:45;;;;;;;11.23;4.05;;;4.00;99.90;;;;;;4176519;28;20029;-78
2021/04/13 07:15:13;;;;;;;13.18;5.40;;;4.10;99.90;;;;;;4188970;28;20512;-79
2021/04/13 07:18:00;;;;;;;15.15;3.85;;;4.30;99.90;;;;;;4190453;28;20527;-79
2021/04/13 07:20:09;;;;;;;8.32;3.70;;;4.40;99.90;;;;;;4172971;28;20198;-80
2021/04/13 07:22:29;;;;;;;6.65;3.42;;;4.50;99.90;;;;;;4176413;28;20483;-80
2021/04/13 07:25:00;;;;;;;11.85;3.92;;;4.60;99.90;;;;;;4169030;28;20040;-78
2021/04/13 07:27:18;;;;;;;12.88;4.28;;;4.70;99.90;;;;;;4191004;28;20031;-80
2021/04/13 07:29:26;;;;;;;8.43;3.70;;;4.70;99.90;;;;;;4172027;28;20035;-79
2021/04/13 07:31:59;;;;;;;13.00;3.55;;;4.70;99.90;;;;;;4175697;28;20029;-78
2021/04/13 07:34:00;;;;;;;7.60;3.22;;;4.80;99.90;;;;;;4175158;28;20104;-81
2021/04/13 07:36:14;;;;;;;13.18;4.10;;;4.80;99.90;;;;;;4188326;28;20035;-81
2021/04/13 07:38:24;;;;;;;7.45;4.05;;;4.90;99.90;;;;;;4183716;28;20025;-79
2021/04/13 07:40:36;;;;;;;11.00;3.65;;;5.00;99.90;;;;;;4176065;28;20128;-79
2021/04/13 07:42:44;;;;;;;10.93;3.83;;;5.10;99.90;;;;;;4173540;28;20052;-81
2021/04/13 07:45:13;;;;;;;9.68;3.08;;;5.20;99.90;;;;;;4192028;28;20067;-81
2021/04/13 07:48:04;;;;;;;8.10;4.22;;;5.30;99.90;;;;;;4185406;28;20044;-79
2021/04/13 07:50:05;;;;;;;6.82;4.22;;;5.40;99.90;;;;;;4167749;28;20036;-82
2021/04/13 07:52:17;;;;;;;4.40;3.00;;;5.50;99.90;;;;;;4176021;28;20028;-81
2021/04/13 07:54:45;;;;;;;7.03;3.08;;;5.60;99.90;;;;;;4194109;28;20032;-80
2021/04/13 07:56:47;;;;;;;6.10;3.13;;;5.60;99.90;;;;;;4175977;28;20507;-79
2021/04/13 07:59:04;;;;;;;11.27;3.47;;;5.80;99.90;;;;;;4192667;28;20418;-79
2021/04/13 08:01:08;;;;;;;8.30;2.92;;;6.00;99.90;;;;;;4186492;28;20032;-79
2021/04/13 08:03:21;;;;;;;12.05;3.70;;;6.30;99.90;;;;;;4176169;28;20037;-79
2021/04/13 08:05:46;;;;;;;;;;;6.50;99.90;;;;;;4176604;28;20069;-79
2021/04/13 08:08:20;;;;;;;4.40;2.35;;;6.80;99.90;;;;;;4187365;28;19927;-81
2021/04/13 08:10:27;;;;;;;12.82;3.15;;;6.90;99.90;;;;;;4192081;28;20033;-79
2021/04/13 08:12:35;;;;;;;8.00;3.63;;;6.90;99.90;;;;;;4193418;28;20036;-79
2021/04/13 08:14:41;;;;;;;7.05;2.47;;;6.80;99.90;;;;;;4191085;28;20429;-80
2021/04/13 08:16:41;;;;;;;5.10;2.58;;;6.90;99.90;;;;;;4191895;28;20033;-79
2021/04/13 08:18:45;;;;;;;9.27;2.85;;;7.00;99.90;;;;;;4192403;28;20036;-79
2021/04/13 08:20:48;;;;;;;4.40;2.05;;;7.10;99.90;;;;;;4175565;28;20404;-80
2021/04/13 08:22:55;;;;;;;9.43;3.08;;;7.20;99.90;;;;;;4192807;28;20119;-80
2021/04/13 08:24:58;;;;;;;6.35;2.60;;;7.30;99.90;;;;;;4175602;28;20140;-80
2021/04/13 08:27:36;;;;;;;;;;;7.10;99.90;;;;;;4176225;28;20037;-80
2021/04/13 08:29:53;;;;;;;3.40;2.30;;;7.00;99.90;;;;;;4190435;28;19975;-81
2021/04/13 08:35:11;;;;;;;4.15;2.28;;;7.00;99.90;;;;;;4191498;28;20040;-79
2021/04/13 08:37:23;;;;;;;7.82;2.30;;;6.90;99.90;;;;;;4209120;28;20123;-79
2021/04/13 08:39:37;;;;;;;7.63;2.40;;;6.90;99.90;;;;;;4192570;28;20110;-80
2021/04/13 08:41:56;;;;;;;5.22;3.15;;;6.90;99.90;;;;;;4180389;28;20041;-82
2021/04/13 08:44:11;;;;;;;4.35;2.35;;;7.00;99.90;;;;;;4208159;28;20036;-80
2021/04/13 08:46:25;;;;;;;5.03;2.72;;;7.20;99.90;;;;;;4192268;28;20055;-80
2021/04/13 08:48:51;;;;;;;5.85;2.33;;;7.50;99.90;;;;;;4187160;28;20131;-79
2021/04/13 08:51:14;;;;;;;8.77;3.22;;;7.60;99.90;;;;;;4186055;28;20021;-79
2021/04/13 08:53:35;;;;;;;3.20;2.10;;;;;;;;;;4191670;28;20040;-79
2021/04/13 08:55:36;;;;;;;6.18;3.10;;;8.10;99.90;;;;;;4174889;28;20040;-80
2021/04/13 08:58:05;;;;;;;5.68;2.67;;;8.30;99.90;;;;;;4194189;28;20494;-80
2021/04/13 09:00:38;;;;;;;5.35;2.63;;;8.60;99.90;;;;;;4177725;28;20094;-79
2021/04/13 09:02:39;;;;;;;7.32;3.35;;;8.70;99.90;;;;;;4211046;28;20063;-79
2021/04/13 09:04:40;;;;;;;7.53;2.50;;;8.20;99.90;;;;;;4178528;28;20040;-80
2021/04/13 09:06:56;;;;;;;6.45;2.72;;;8.80;99.90;;;;;;4178200;28;20130;-80
2021/04/13 09:09:32;;;;;;;5.65;2.28;;;9.10;99.90;;;;;;4194424;28;20033;-79
2021/04/13 09:11:57;;;;;;;6.90;2.72;;;9.30;99.90;;;;;;4193049;28;20186;-80
2021/04/13 09:14:16;;;;;;;12.23;4.20;;;9.70;99.90;;;;;;4193894;28;20031;-79
2021/04/13 09:16:23;;;;;;;7.32;2.70;;;9.30;99.90;;;;;;4195595;28;20032;-80
2021/04/13 09:18:57;;;;;;;7.45;2.60;;;9.70;99.90;;;;;;4194218;28;20031;-79
2021/04/13 09:21:31;;;;;;;6.95;2.60;;;9.40;99.90;;;;;;4186831;28;20028;-79
2021/04/13 09:24:03;;;;;;;5.40;2.40;;;9.10;99.90;;;;;;4176819;28;20135;-79
2021/04/13 09:26:23;;;;;;;8.98;3.28;;;9.40;99.90;;;;;;4185478;28;20125;-79
2021/04/13 09:28:26;;;;;;;6.88;2.97;;;8.80;99.90;;;;;;4176122;28;20044;-79
2021/04/13 09:30:33;;;;;;;4.95;2.72;;;9.10;99.90;;;;;;4191098;28;20051;-79
2021/04/13 09:32:42;;;;;;;7.28;2.53;;;9.50;99.90;;;;;;4208123;28;20035;-80
2021/04/13 09:35:18;;;;;;;7.78;2.60;;;9.90;99.90;;;;;;4202371;28;20040;-79
2021/04/13 09:37:38;;;;;;;4.53;2.65;;;10.40;99.90;;;;;;4190783;28;20048;-80
2021/04/13 09:39:47;;;;;;;4.63;2.60;;;10.60;99.90;;;;;;4193450;28;20063;-81
2021/04/13 09:42:32;;;;;;;6.95;2.72;;;10.70;99.90;;;;;;4193740;28;20040;-79
2021/04/13 09:45:17;;;;;;;11.85;3.60;;;10.80;99.90;;;;;;4194109;28;20499;-80
2021/04/13 09:47:41;;;;;;;;;;;11.10;99.90;;;;;;4194596;28;20043;-79
2021/04/13 09:50:21;;;;;;;4.22;2.80;;;;;;;;;;4188797;28;19951;-79
2021/04/13 09:52:44;;;;;;;6.07;2.80;;;11.60;99.90;;;;;;4160273;28;20049;-80
2021/04/13 09:55:02;;;;;;;5.03;2.45;;;11.70;99.90;;;;;;4183852;28;20044;-80
2021/04/13 09:57:43;;;;;;;4.05;2.67;;;;;;;;;;4191964;28;20127;-80
2021/04/13 10:00:06;;;;;;;4.90;2.10;;;12.10;99.90;;;;;;4183224;28;20064;-79
2021/04/13 10:02:16;;;;;;;5.65;2.47;;;12.20;99.90;;;;;;4173651;28;20072;-80
2021/04/13 10:04:53;;;;;;;5.47;2.55;;;12.30;99.90;;;;;;4194340;28;20480;-79
2021/04/13 10:07:20;;;;;;;8.75;2.97;;;12.10;99.90;;;;;;4193507;28;20040;-79
2021/04/13 10:09:25;;;;;;;10.73;2.95;;;12.40;99.90;;;;;;4189953;28;20036;-80
2021/04/13 10:12:01;;;;;;;5.05;2.58;;;13.10;99.90;;;;;;4191669;28;20491;-80
2021/04/13 10:14:34;;;;;;;5.82;2.47;;;13.70;95.30;;;;;;4188716;28;20029;-81
2021/04/13 10:17:24;;;;;;;8.02;2.47;;;13.10;95.20;;;;;;4193641;28;20033;-81
2021/04/13 10:19:54;;;;;;;7.90;2.60;;;12.40;97.30;;;;;;4167628;28;20044;-80
2021/04/13 10:22:41;;;;;;;6.25;2.33;;;12.20;99.30;;;;;;4210685;28;20036;-79
2021/04/13 10:25:26;;;;;;;3.28;2.30;;;12.20;94.20;;;;;;4194120;28;20052;-80
2021/04/13 10:28:03;;;;;;;4.15;2.33;;;12.20;97.30;;;;;;4206581;28;20110;-81
2021/04/13 10:31:04;;;;;;;5.97;2.28;;;12.40;88.50;;;;;;4209471;28;20483;-81
2021/04/13 10:33:28;;;;;;;5.43;2.55;;;12.20;91.10;;;;;;4192170;28;20387;-79
2021/04/13 10:36:15;;;;;;;4.63;2.58;;;11.50;97.30;;;;;;4202090;28;20035;-78
2021/04/13 10:38:43;;;;;;;4.90;2.30;;;11.00;95.50;;;;;;4150421;28;20059;-79
2021/04/13 10:41:35;;;;;;;6.10;2.70;;;10.40;99.90;;;;;;4193363;28;20036;-80
2021/04/13 10:44:13;;;;;;;3.28;2.53;;;10.10;99.90;;;;;;4189969;28;20055;-79
2021/04/13 10:46:24;;;;;;;7.68;2.70;;;;;;;;;;4208604;28;20059;-79
2021/04/13 10:48:58;;;;;;;7.35;2.70;;;12.60;99.90;;;;;;4193187;28;20377;-80
2021/04/13 10:51:08;;;;;;;5.80;2.58;;;12.90;99.10;;;;;;4190880;28;20044;-79
2021/04/13 10:53:51;;;;;;;5.43;2.35;;;14.40;99.90;;;;;;4191506;28;20052;-80
2021/04/13 10:56:35;;;;;;;3.58;2.20;;;14.40;99.90;;;;;;4188622;28;20052;-81
2021/04/13 10:58:56;;;;;;;2.90;1.87;;;15.00;83.70;;;;;;4182975;28;20036;-80
2021/04/13 11:01:45;;;;;;;4.38;2.42;;;15.30;83.20;;;;;;4205121;28;20560;-80
2021/04/13 11:04:18;;;;;;;2.10;1.90;;;15.40;78.10;;;;;;4187853;28;20037;-80
2021/04/13 11:06:59;;;;;;;4.78;2.63;;;14.70;77.50;;;;;;4167431;28;20575;-79
2021/04/13 11:09:06;;;;;;;2.28;2.08;;;;;;;;;;4184660;28;20074;-80
2021/04/13 11:11:45;;;;;;;2.63;2.25;;;13.00;70.20;;;;;;4191615;28;20032;-80
2021/04/13 11:14:15;;;;;;;3.72;2.22;;;12.00;72.80;;;;;;4192605;28;20036;-81
2021/04/13 11:16:59;;;;;;;3.72;2.20;;;11.20;79.00;;;;;;4191432;28;20029;-81
2021/04/13 11:19:19;;;;;;;2.63;2.10;;;10.70;78.10;;;;;;4175173;28;20594;-82
2021/04/13 11:21:52;;;;;;;3.95;2.10;;;11.50;70.10;;;;;;4198161;28;20522;-81
2021/04/13 11:23:55;;;;;;;3.92;2.03;;;12.40;68.90;;;;;;4192893;28;20056;-81
2021/04/13 11:26:37;;;;;;;4.28;2.13;;;13.40;68.50;;;;;;4175898;28;20044;-81
2021/04/13 11:29:24;;;;;;;3.70;2.22;;;14.20;65.10;;;;;;4173774;28;20037;-81
2021/04/13 11:31:43;;;;;;;3.33;2.28;;;15.40;62.40;;;;;;4193770;28;20044;-80
2021/04/13 11:34:14;;;;;;;3.00;1.77;;;16.00;67.70;;;;;;4185995;28;20084;-80
2021/04/13 11:36:42;;;;;;;2.25;2.05;;;15.20;56.50;;;;;;4190491;28;20029;-80
2021/04/13 11:39:01;;;;;;;4.57;2.42;;;13.70;58.20;;;;;;4187528;28;20090;-81
2021/04/13 11:41:30;;;;;;;4.53;1.90;;;12.40;61.30;;;;;;4192111;28;20992;-80
2021/04/13 11:43:41;;;;;;;6.15;2.53;;;11.50;64.30;;;;;;4192038;28;20067;-81
2021/04/13 11:46:06;;;;;;;6.15;2.20;;;11.20;66.00;;;;;;4192329;28;20090;-81
2021/04/13 11:48:43;;;;;;;6.35;3.15;;;11.00;67.30;;;;;;4191227;28;20580;-80